Pagrindinis puslapis
METAR-TAF:

METAR-TAF

Oro uostai :

San Žozė do Rio Pretas, San Paulas, Brazilija

platuma: 20-48-58S, ilguma: 049-24-17W, Aukštis: 543 m

Dabartinis oras

Ataskaita buvo paskelbta 30 minutes, ne 00:00 UTC
Vėjas 4 kt iš Vakarų
Temperatūra 26°C
Drėgmė 70%
Slėgis 1015 hPa
Matomumas 10 km arba daugiau
Išsisklaidę debesys ne aukštis 3000 ft
Su prošvaistėmis ne aukštis 7000 ft

METAR: SBSR 060000Z 27004KT 9999 SCT030 BKN070 26/20 Q1015

Laikas: 21:30 (00:30 UTC)


TAF: trūkstamas

Orai ataskaitas ir orų prognozės (METAR, TAF).

turimą stotys yra geltonos ir raudonos taškus žemėlapyje.

Perkelti pele per norėdami pamatyti stoties vardą.

Tada spustelėkite, norėdami matyti oro stebėjimo ir prognozės.

Norėdami pakeisti žemėlapį: spustelėkite ant žalios mygtukų su juodo kryžiaus žemyn,; žalią mygtuką su brūkšneliu, jei norite nutolinti; arba žalių rodyklių gretimoms žemėlapius.


METAR-TAF: